Dobrodošli na spletni strani vremenske postaje Senovo. Vse informacije so informativnega značaja, saj vremenska postaja ni del državne mreže meteoroloških postaj. AKTUALNIH OBVESTIL NI.


Posebna pozornost v zvezi z vremenskimi dogajanji ni potrebna.    Posebna pozornost v zvezi z vremenskimi dogajanji ni potrebna.

Pogled proti Armezu več informacij Pogled proti Armezu


Bohor več informacij Bohor


Radar strel več informacij blitzortung!


Radar padavin več informacij rain snow radar


Obiščite še:

Template documentation
and downloads

And another site



Weather Underground, zgodovina - Tekstovno

Dnevni povzetek za December 08, 2017 Enote:  Angleško    Metrično   Obe
« Predhodni Dan
Naslednji Dan »
Dnevni Tedenski Mesečni Letni Po meri
  Višja: Nižja: Povprečje:
Temperatura: TemperatureC °F 1.4 °F 6.8 °F
Točka rosišča: DewpointC °F -1.9 °F 3.4 °F
Vlažnost: Humidity % 62 % 79 %
Hitrost vetra: WindSpeedKMH mph 0.0 mph 3.4 mph
Sunki vetra: WindSpeedGustKMH mph - -
Veter:- - SW
Zračni tlak: PressurehPa in 1006.0 in -
Padavine: 22.4 in    
Historical Graphs
 
 
Tabelarni podarki za December 08, 2017
Čas Temperatura Točka rosišča Zračni tlak Veter Hitrost vetra Sunki vetra Vlažnost Intenziteta padavin (urna)
TemperatureC °F DewpointC °F PressurehPa in Calm     Humidity % HourlyPrecipMM in
00:07 4.7 °F -0.3 °F 1019.9 in West 0.2 mph 3.5 mph 70 % 0.0 in
00:12 4.5 °F -0.5 °F 1018.8 in Calm   5.0 mph 70 % 0.0 in
00:17 4.3 °F -0.7 °F 1018.8 in NW 0.6 mph 5.0 mph 70 % 0.0 in
00:22 4.0 °F -0.8 °F 1018.8 in NW 0.6 mph 5.0 mph 71 % 0.0 in
00:32 3.4 °F -1.4 °F 1018.8 in NNW 1.1 mph 4.7 mph 71 % 0.0 in
00:42 3.0 °F -1.6 °F 1018.8 in North 1.1 mph 4.0 mph 72 % 0.0 in
00:47 2.9 °F -1.4 °F 1018.8 in North 0.5 mph 4.0 mph 73 % 0.0 in
00:52 2.7 °F -1.7 °F 1018.8 in NNW 0.5 mph 3.5 mph 73 % 0.0 in
01:02 2.4 °F -1.8 °F 1018.8 in WNW 0.2 mph 4.7 mph 74 % 0.0 in
01:07 2.3 °F -1.9 °F 1018.8 in NW 0.5 mph 4.7 mph 74 % 0.0 in
01:17 2.3 °F -1.7 °F 1018.8 in NNW 2.9 mph 6.9 mph 75 % 0.0 in
01:22 2.1 °F -1.9 °F 1018.8 in NNW 1.9 mph 4.7 mph 75 % 0.0 in
01:27 2.1 °F -1.9 °F 1018.2 in WNW 1.3 mph 6.1 mph 75 % 0.0 in
01:42 2.2 °F -1.4 °F 1018.2 in NW 2.1 mph 5.5 mph 77 % 0.0 in
01:47 2.3 °F -1.3 °F 1018.2 in SW 1.9 mph 5.5 mph 77 % 0.0 in
01:52 2.4 °F -1.1 °F 1018.2 in SSE 1.3 mph 4.7 mph 78 % 0.0 in
01:57 2.9 °F -0.6 °F 1016.8 in WNW 1.3 mph 4.7 mph 78 % 0.0 in
02:02 3.1 °F -0.4 °F 1016.8 in West 1.9 mph 6.1 mph 78 % 0.0 in
02:08 3.1 °F -0.2 °F 1016.8 in West 1.9 mph 6.1 mph 79 % 0.0 in
02:13 3.1 °F -0.2 °F 1016.8 in NW 2.3 mph 5.0 mph 79 % 0.0 in
02:18 3.1 °F 0.0 °F 1016.8 in NW 2.7 mph 5.0 mph 80 % 0.0 in
02:23 2.9 °F -0.2 °F 1016.8 in NW 1.6 mph 4.7 mph 80 % 0.0 in
02:28 2.8 °F -0.3 °F 1016.8 in WNW 0.8 mph 3.5 mph 80 % 0.0 in
02:33 2.6 °F -0.3 °F 1016.8 in NW 1.4 mph 5.0 mph 81 % 0.0 in
02:38 2.5 °F -0.4 °F 1016.8 in NW 1.9 mph 5.0 mph 81 % 0.0 in
02:43 2.3 °F -0.6 °F 1016.8 in NW 0.6 mph 4.3 mph 81 % 0.0 in
02:48 2.2 °F -0.7 °F 1016.8 in NW 0.5 mph 4.0 mph 81 % 0.0 in
02:53 2.1 °F -0.8 °F 1016.8 in NNW 0.8 mph 4.3 mph 81 % 0.0 in
02:58 2.0 °F -0.8 °F 1018.2 in NNW 0.8 mph 4.7 mph 82 % 0.0 in
03:03 1.9 °F -0.8 °F 1018.2 in NW 0.8 mph 4.7 mph 82 % 0.0 in
03:08 1.7 °F -1.1 °F 1018.2 in NW 0.6 mph 3.5 mph 82 % 0.0 in
03:13 1.7 °F -1.1 °F 1016.8 in WNW 0.5 mph 2.6 mph 82 % 0.0 in
03:18 1.5 °F -1.2 °F 1016.8 in NW 0.5 mph 4.3 mph 82 % 0.0 in
03:23 1.6 °F -1.0 °F 1016.8 in NNW 1.1 mph 4.3 mph 83 % 0.0 in
03:28 1.5 °F -1.1 °F 1016.1 in NNW 0.8 mph 4.0 mph 83 % 0.0 in
03:33 1.5 °F -1.1 °F 1016.1 in NW 1.1 mph 4.0 mph 83 % 0.0 in
03:38 1.4 °F -1.2 °F 1016.1 in NNW 1.6 mph 4.0 mph 83 % 0.0 in
03:43 1.5 °F -0.9 °F 1016.1 in NNW 0.8 mph 4.0 mph 84 % 0.0 in
03:48 1.4 °F -1.0 °F 1016.1 in NW 0.2 mph 2.6 mph 84 % 0.0 in
03:53 1.4 °F -1.0 °F 1016.1 in NNW 0.8 mph 5.8 mph 84 % 0.0 in
03:58 1.7 °F -0.7 °F 1016.1 in NNW 2.1 mph 5.8 mph 84 % 0.0 in
04:03 1.8 °F -0.4 °F 1016.1 in NNW 2.4 mph 4.7 mph 85 % 0.0 in
04:08 1.8 °F -0.4 °F 1016.1 in NNW 1.3 mph 4.3 mph 85 % 0.0 in
04:13 1.9 °F -0.3 °F 1016.1 in NNW 0.2 mph 2.6 mph 85 % 0.0 in
04:19 1.9 °F -0.2 °F 1016.1 in Calm     86 % 0.0 in
04:22 1.9 °F -0.2 °F 1016.1 in Calm     86 % 0.0 in
04:24 1.9 °F -0.2 °F 1016.1 in Calm     86 % 0.0 in
04:25 1.9 °F -0.2 °F 1016.1 in Calm     86 % 0.0 in
04:35 2.0 °F -0.1 °F 1015.1 in NNW 1.8 mph 5.0 mph 86 % 0.0 in
04:40 2.0 °F -0.1 °F 1015.1 in NW 0.8 mph 4.0 mph 86 % 0.0 in
04:45 2.0 °F -0.1 °F 1015.1 in NW 1.0 mph 5.0 mph 86 % 0.0 in
04:50 2.1 °F 0.0 °F 1015.1 in NW 1.8 mph 5.0 mph 86 % 0.0 in
04:55 2.3 °F 0.3 °F 1015.1 in NW 2.1 mph 6.9 mph 87 % 0.0 in
05:00 2.7 °F 0.8 °F 1014.1 in NNW 2.7 mph 6.9 mph 87 % 0.0 in
05:05 3.2 °F 1.2 °F 1014.1 in WNW 3.4 mph 9.3 mph 87 % 0.0 in
05:10 3.7 °F 1.9 °F 1014.1 in WNW 3.2 mph 9.3 mph 88 % 0.0 in
05:15 4.2 °F 2.4 °F 1015.1 in WNW 2.7 mph 5.8 mph 88 % 0.0 in
05:20 4.5 °F 2.7 °F 1015.1 in West 2.4 mph 10.5 mph 88 % 0.0 in
05:25 5.0 °F 3.2 °F 1015.1 in West 2.9 mph 10.5 mph 88 % 0.0 in
05:30 5.4 °F 3.7 °F 1015.1 in WSW 3.5 mph 9.3 mph 89 % 0.0 in
05:35 5.7 °F 4.2 °F 1015.1 in West 3.1 mph 9.3 mph 90 % 0.0 in
05:40 5.9 °F 4.4 °F 1015.1 in West 2.4 mph 7.2 mph 90 % 0.0 in
05:45 6.1 °F 4.6 °F 1015.1 in WNW 1.4 mph 6.4 mph 90 % 0.0 in
05:50 6.2 °F 4.7 °F 1015.1 in WNW 3.4 mph 6.4 mph 90 % 0.0 in
05:55 6.2 °F 4.7 °F 1015.1 in WSW 3.7 mph 6.4 mph 90 % 0.0 in
06:00 5.9 °F 4.4 °F 1015.1 in WSW 3.5 mph 3.5 mph 90 % 0.0 in
06:05 6.1 °F 4.6 °F 1015.1 in WSW 3.5 mph 3.5 mph 90 % 0.0 in
06:10 6.0 °F 4.5 °F 1015.1 in WSW 3.5 mph 3.5 mph 90 % 0.0 in
06:15 5.9 °F 4.4 °F 1014.1 in SSW 3.5 mph 4.3 mph 90 % 0.0 in
06:20 6.3 °F 4.8 °F 1014.1 in SSW 3.5 mph 4.3 mph 90 % 0.0 in
06:25 6.5 °F 5.0 °F 1014.1 in SSW 3.5 mph 4.3 mph 90 % 0.0 in
06:30 6.6 °F 5.1 °F 1014.1 in SSE 5.5 mph 8.7 mph 90 % 0.0 in
06:35 6.7 °F 5.2 °F 1014.1 in SSE 6.6 mph 8.7 mph 90 % 0.0 in
06:40 6.8 °F 5.3 °F 1014.1 in SSE 4.7 mph 9.0 mph 90 % 0.0 in
06:45 7.0 °F 5.4 °F 1014.1 in South 3.2 mph 9.0 mph 90 % 0.0 in
06:50 7.2 °F 5.7 °F 1014.1 in WSW 5.1 mph 12.2 mph 90 % 0.0 in
06:55 7.3 °F 5.8 °F 1014.1 in SW 7.2 mph 12.2 mph 90 % 0.0 in
07:00 7.5 °F 5.9 °F 1013.1 in SSW 5.8 mph 10.5 mph 90 % 0.0 in
07:05 7.8 °F 6.1 °F 1013.1 in SSW 5.3 mph 11.6 mph 89 % 0.0 in
07:10 7.9 °F 6.2 °F 1013.1 in SW 6.6 mph 17.2 mph 89 % 0.0 in
07:15 8.2 °F 6.5 °F 1013.1 in WSW 6.1 mph 17.2 mph 89 % 0.0 in
07:20 8.2 °F 6.3 °F 1013.1 in SW 5.8 mph 12.2 mph 88 % 0.0 in
07:25 8.4 °F 6.5 °F 1013.1 in WSW 5.6 mph 12.2 mph 88 % 0.0 in
07:30 8.5 °F 6.4 °F 1013.1 in WSW 5.6 mph 14.3 mph 87 % 0.0 in
07:35 8.6 °F 6.6 °F 1013.1 in WSW 5.8 mph 16.6 mph 87 % 0.0 in
07:40 8.7 °F 6.7 °F 1013.1 in West 6.3 mph 16.6 mph 87 % 0.0 in
07:45 8.7 °F 6.5 °F 1013.1 in WSW 8.0 mph 13.7 mph 86 % 0.0 in
08:01 8.9 °F 6.5 °F 1013.1 in West 7.6 mph 15.8 mph 85 % 0.0 in
08:06 8.9 °F 6.3 °F 1013.1 in West 7.2 mph 15.8 mph 84 % 0.0 in
08:11 9.0 °F 6.3 °F 1013.1 in SW 6.9 mph 14.0 mph 83 % 0.0 in
08:16 9.1 °F 6.4 °F 1013.1 in SW 7.6 mph 14.0 mph 83 % 0.0 in
08:21 9.3 °F 6.6 °F 1013.1 in WSW 7.2 mph 13.0 mph 83 % 0.0 in
08:26 9.4 °F 6.7 °F 1013.1 in West 6.3 mph 14.0 mph 83 % 0.0 in
08:36 9.6 °F 6.7 °F 1013.1 in WSW 6.6 mph 17.7 mph 82 % 0.0 in
08:41 9.6 °F 6.5 °F 1012.1 in WSW 6.4 mph 17.7 mph 81 % 0.0 in
08:46 9.6 °F 6.5 °F 1012.1 in West 6.8 mph 13.7 mph 81 % 0.0 in
08:56 9.7 °F 6.4 °F 1013.1 in West 5.5 mph 16.3 mph 80 % 0.0 in
09:01 9.7 °F 6.4 °F 1013.1 in WSW 6.4 mph 16.3 mph 80 % 0.0 in
09:06 9.8 °F 6.3 °F 1013.1 in WSW 6.4 mph 13.0 mph 79 % 0.0 in
09:11 10.0 °F 6.5 °F 1013.1 in WSW 5.6 mph 11.6 mph 79 % 0.0 in
09:16 10.1 °F 6.4 °F 1013.1 in West 4.5 mph 10.1 mph 78 % 0.0 in
09:21 10.2 °F 6.6 °F 1013.1 in West 2.7 mph 9.0 mph 78 % 0.0 in
09:26 10.2 °F 6.6 °F 1013.1 in SW 1.9 mph 6.1 mph 78 % 0.0 in
09:36 10.2 °F 6.3 °F 1013.1 in WSW 2.9 mph 9.7 mph 77 % 0.0 in
09:41 10.3 °F 6.4 °F 1013.1 in WSW 3.9 mph 17.2 mph 77 % 0.0 in
09:51 10.5 °F 6.4 °F 1013.1 in SW 9.5 mph 18.0 mph 76 % 0.0 in
09:56 10.5 °F 6.4 °F 1012.1 in SW 8.8 mph 18.0 mph 76 % 0.0 in
10:01 10.6 °F 6.3 °F 1012.1 in SSW 6.9 mph 16.3 mph 75 % 0.0 in
10:06 10.6 °F 6.3 °F 1012.1 in SW 7.4 mph 16.3 mph 75 % 0.0 in
10:16 10.5 °F 6.1 °F 1012.1 in SW 7.6 mph 13.7 mph 74 % 0.0 in
10:21 10.5 °F 6.1 °F 1012.1 in SW 7.1 mph 13.7 mph 74 % 0.0 in
10:26 10.5 °F 5.9 °F 1012.1 in SW 6.3 mph 11.9 mph 73 % 0.0 in
10:31 10.5 °F 5.9 °F 1012.1 in SW 6.3 mph 9.7 mph 73 % 0.0 in
10:46 10.4 °F 5.6 °F 1012.1 in SW 5.0 mph 10.5 mph 72 % 0.0 in
10:51 10.4 °F 5.6 °F 1012.1 in SSW 4.2 mph 10.1 mph 72 % 0.0 in
10:56 10.4 °F 5.6 °F 1012.1 in SW 4.7 mph 9.3 mph 72 % 0.0 in
11:01 10.4 °F 5.6 °F 1012.1 in SW 6.0 mph 10.8 mph 72 % 0.0 in
11:06 10.4 °F 5.4 °F 1012.1 in SW 6.3 mph 10.8 mph 71 % 0.0 in
11:11 10.4 °F 5.4 °F 1011.1 in SW 5.1 mph 9.7 mph 71 % 0.0 in
11:16 10.4 °F 5.4 °F 1011.1 in SW 5.8 mph 6.4 mph 71 % 0.0 in
11:21 10.4 °F 5.4 °F 1011.1 in SW 4.7 mph 9.3 mph 71 % 0.0 in
11:26 10.5 °F 5.4 °F 1011.1 in SW 3.4 mph 9.3 mph 71 % 0.0 in
11:31 10.5 °F 5.4 °F 1011.1 in SW 2.9 mph 9.3 mph 71 % 0.0 in
11:41 10.5 °F 5.3 °F 1011.1 in WSW 4.2 mph 9.0 mph 70 % 0.0 in
11:51 10.6 °F 5.3 °F 1011.1 in SW 2.6 mph 10.5 mph 70 % 0.0 in
11:56 10.7 °F 5.4 °F 1011.1 in WSW 2.6 mph 7.9 mph 70 % 0.0 in
12:01 10.8 °F 5.6 °F 1011.1 in SW 3.2 mph 7.9 mph 70 % 0.0 in
12:06 10.8 °F 5.6 °F 1011.1 in SW 2.9 mph 5.8 mph 70 % 0.0 in
12:11 10.9 °F 5.7 °F 1011.1 in SW 3.2 mph 9.3 mph 70 % 0.0 in
12:16 11.0 °F 5.5 °F 1011.1 in WSW 5.3 mph 9.3 mph 69 % 0.0 in
12:26 11.2 °F 5.5 °F 1010.0 in WSW 4.5 mph 13.7 mph 68 % 0.0 in
12:31 11.3 °F 5.4 °F 1010.0 in WSW 5.1 mph 13.7 mph 67 % 0.0 in
12:36 11.3 °F 5.4 °F 1010.0 in SW 6.1 mph 10.8 mph 67 % 0.0 in
12:41 11.2 °F 5.1 °F 1010.0 in SW 6.9 mph 10.8 mph 66 % 0.0 in
12:43 11.2 °F 5.1 °F 1010.0 in SW 6.9 mph 10.8 mph 66 % 0.0 in
12:48 11.2 °F 5.1 °F 1010.0 in SW 6.4 mph 10.8 mph 66 % 0.0 in
12:53 11.2 °F 4.8 °F 1010.0 in SW 6.4 mph 12.2 mph 65 % 0.0 in
12:58 11.1 °F 4.8 °F 1009.0 in SW 6.0 mph 12.2 mph 65 % 0.0 in
13:03 11.1 °F 4.8 °F 1009.0 in SW 4.3 mph 6.9 mph 65 % 0.0 in
13:08 11.0 °F 4.7 °F 1009.0 in SSW 3.2 mph 6.9 mph 65 % 0.0 in
13:13 11.0 °F 4.7 °F 1009.0 in SW 3.7 mph 6.1 mph 65 % 0.0 in
13:18 11.0 °F 4.4 °F 1009.0 in WSW 3.2 mph 6.1 mph 64 % 0.0 in
13:23 10.9 °F 4.6 °F 1009.0 in West 2.1 mph 6.9 mph 65 % 0.0 in
13:28 10.8 °F 4.5 °F 1009.0 in West 2.7 mph 6.9 mph 65 % 0.0 in
13:33 10.9 °F 4.6 °F 1009.0 in SW 3.5 mph 7.9 mph 65 % 0.0 in
13:38 11.0 °F 4.7 °F 1009.0 in SSW 4.7 mph 9.0 mph 65 % 0.0 in
13:43 11.0 °F 4.7 °F 1009.0 in SSW 5.8 mph 11.9 mph 65 % 0.0 in
13:48 11.1 °F 4.6 °F 1009.0 in SSW 6.0 mph 11.9 mph 64 % 0.0 in
13:53 11.0 °F 4.4 °F 1009.0 in SW 5.1 mph 11.9 mph 64 % 0.0 in
13:54 11.0 °F 4.4 °F 1009.0 in SW 4.8 mph 9.0 mph 64 % 0.0 in
13:59 11.1 °F 4.6 °F 1009.0 in SSW 4.2 mph 6.4 mph 64 % 0.0 in
14:04 11.0 °F 4.4 °F 1009.0 in South 4.8 mph 6.4 mph 64 % 0.0 in
14:09 11.0 °F 4.2 °F 1009.0 in SSE 5.0 mph 5.0 mph 63 % 0.0 in
14:14 11.0 °F 4.2 °F 1010.0 in SSE 5.0 mph 5.0 mph 63 % 0.0 in
14:19 11.0 °F 4.2 °F 1010.0 in SSW 6.0 mph 12.2 mph 63 % 0.0 in
14:24 11.0 °F 4.2 °F 1010.0 in SW 4.8 mph 12.2 mph 63 % 0.0 in
14:25 10.9 °F 4.1 °F 1010.0 in SW 4.7 mph 12.2 mph 63 % 0.0 in
14:30 10.9 °F 4.1 °F 1009.0 in SW 5.1 mph 7.6 mph 63 % 0.0 in
14:35 10.9 °F 4.1 °F 1009.0 in SW 6.3 mph 10.5 mph 63 % 0.0 in
14:40 10.8 °F 4.1 °F 1009.0 in SW 5.6 mph 10.5 mph 63 % 0.0 in
14:45 10.8 °F 4.1 °F 1009.0 in SW 6.0 mph 9.7 mph 63 % 0.0 in
14:50 10.8 °F 3.8 °F 1009.0 in SSW 6.3 mph 9.7 mph 62 % 0.0 in
15:00 10.7 °F 3.9 °F 1009.0 in SSW 6.1 mph 12.2 mph 63 % 0.0 in
15:05 10.7 °F 3.9 °F 1009.0 in SW 7.6 mph 12.2 mph 63 % 0.0 in
15:15 10.6 °F 3.8 °F 1009.0 in SW 6.3 mph 12.6 mph 63 % 0.0 in
15:20 10.5 °F 3.9 °F 1009.0 in SW 6.4 mph 12.6 mph 64 % 0.0 in
15:30 10.3 °F 3.8 °F 1008.0 in SW 4.8 mph 9.3 mph 64 % 0.0 in
15:35 10.2 °F 3.9 °F 1008.0 in SW 3.7 mph 6.4 mph 65 % 0.0 in
15:40 10.1 °F 3.8 °F 1008.0 in SW 2.1 mph 5.0 mph 65 % 0.0 in
15:45 10.0 °F 3.7 °F 1008.0 in WNW 1.1 mph 5.0 mph 65 % 0.0 in
15:51 9.8 °F 3.7 °F 1008.0 in WNW 1.1 mph 5.0 mph 66 % 0.0 in
15:53 9.8 °F 3.9 °F 1008.0 in WNW 1.4 mph 5.0 mph 67 % 0.0 in
15:58 9.6 °F 3.8 °F 1008.0 in WNW 0.6 mph 3.2 mph 67 % 0.0 in
16:03 9.5 °F 3.9 °F 1008.0 in WNW 0.8 mph 3.5 mph 68 % 0.0 in
16:08 9.3 °F 3.7 °F 1008.0 in WNW 1.4 mph 3.5 mph 68 % 0.0 in
16:13 9.2 °F 3.8 °F 1009.0 in WNW 1.1 mph 2.1 mph 69 % 0.0 in
16:18 9.0 °F 3.6 °F 1009.0 in Calm     69 % 0.0 in
16:23 8.8 °F 3.8 °F 1009.0 in Calm     71 % 0.0 in
16:28 8.6 °F 3.6 °F 1008.0 in Calm     71 % 0.0 in
16:33 8.4 °F 3.7 °F 1008.0 in Calm     72 % 0.3 in
16:34 8.4 °F 3.7 °F 1008.0 in Calm     72 % 0.3 in
16:39 8.2 °F 3.7 °F 1008.0 in Calm     73 % 0.3 in
16:44 8.2 °F 3.7 °F 1008.0 in Calm     73 % 0.3 in
16:49 7.9 °F 3.6 °F 1008.0 in Calm     74 % 0.3 in
16:54 7.8 °F 3.7 °F 1008.0 in Calm     75 % 0.3 in
16:58 7.8 °F 3.7 °F 1008.0 in Calm     75 % 0.3 in
17:08 7.5 °F 3.6 °F 1008.0 in Calm     76 % 0.5 in
17:12 7.5 °F 3.7 °F 1008.0 in Calm     77 % 0.8 in
17:18 7.4 °F 3.8 °F 1008.0 in Calm     78 % 0.8 in
17:28 7.3 °F 3.9 °F 1008.0 in Calm     79 % 0.8 in
17:33 7.2 °F 3.8 °F 1008.0 in Calm     79 % 0.5 in
17:38 7.1 °F 3.9 °F 1008.0 in Calm     80 % 0.5 in
17:48 7.0 °F 3.9 °F 1007.0 in Calm     81 % 0.5 in
17:53 7.0 °F 3.9 °F 1007.0 in Calm     81 % 1.0 in
17:58 6.9 °F 4.1 °F 1007.0 in Calm     82 % 1.3 in
18:03 6.9 °F 4.2 °F 1007.0 in Calm     83 % 1.3 in
18:08 6.8 °F 4.1 °F 1007.0 in ENE 0.8 mph 2.6 mph 83 % 1.3 in
18:13 6.8 °F 4.1 °F 1007.0 in ENE 0.3 mph 2.6 mph 83 % 1.3 in
18:18 6.8 °F 4.3 °F 1007.0 in Calm     84 % 1.3 in
18:23 6.8 °F 4.3 °F 1007.0 in Calm   2.6 mph 84 % 1.5 in
18:25 6.8 °F 4.4 °F 1007.0 in Calm   2.6 mph 85 % 1.5 in
18:30 6.8 °F 4.4 °F 1007.0 in Calm     85 % 1.5 in
18:35 6.7 °F 4.3 °F 1007.0 in Calm     85 % 1.5 in
18:40 6.7 °F 4.5 °F 1007.0 in Calm     86 % 1.5 in
18:45 6.7 °F 4.5 °F 1007.0 in Calm     86 % 1.3 in
18:50 6.7 °F 4.5 °F 1007.0 in Calm     86 % 1.0 in
18:55 6.7 °F 4.5 °F 1007.0 in Calm     86 % 0.8 in
19:00 6.6 °F 4.4 °F 1007.0 in Calm     86 % 0.8 in
19:05 6.6 °F 4.6 °F 1007.0 in Calm   2.1 mph 87 % 0.8 in
19:07 6.6 °F 4.6 °F 1007.0 in NW 0.2 mph 2.1 mph 87 % 0.8 in
19:12 6.5 °F 4.5 °F 1007.0 in NW 0.2 mph 2.1 mph 87 % 0.8 in
19:17 6.5 °F 4.5 °F 1007.0 in Calm     87 % 0.8 in
19:22 6.5 °F 4.5 °F 1007.0 in Calm     87 % 0.5 in
19:34 6.6 °F 4.8 °F 1007.0 in Calm     88 % 0.8 in
19:39 6.5 °F 4.7 °F 1007.0 in Calm     88 % 1.0 in
19:44 6.5 °F 4.7 °F 1008.0 in Calm     88 % 1.3 in
19:49 6.4 °F 4.6 °F 1008.0 in Calm     88 % 1.3 in
19:54 6.4 °F 4.6 °F 1008.0 in Calm     88 % 1.8 in
19:59 6.4 °F 4.7 °F 1007.0 in Calm     89 % 2.0 in
20:04 6.4 °F 4.7 °F 1007.0 in Calm     89 % 2.3 in
20:09 6.4 °F 4.7 °F 1007.0 in Calm     89 % 2.3 in
20:14 6.5 °F 4.8 °F 1007.0 in Calm     89 % 2.3 in
20:19 6.4 °F 4.9 °F 1007.0 in Calm     90 % 2.3 in
20:24 6.4 °F 4.9 °F 1007.0 in Calm     90 % 2.3 in
20:29 6.4 °F 4.9 °F 1007.0 in Calm     90 % 2.5 in
20:34 6.4 °F 4.9 °F 1007.0 in Calm     90 % 2.5 in
20:39 6.4 °F 4.9 °F 1007.0 in Calm     90 % 2.5 in
20:44 6.4 °F 5.1 °F 1007.0 in Calm   2.1 mph 91 % 2.5 in
20:49 6.4 °F 5.1 °F 1007.0 in Calm   2.1 mph 91 % 2.5 in
20:54 6.4 °F 5.1 °F 1007.0 in Calm     91 % 2.3 in
20:59 6.5 °F 5.1 °F 1007.0 in Calm   3.5 mph 91 % 2.3 in
21:04 6.5 °F 5.1 °F 1007.0 in NNE 0.8 mph 5.0 mph 91 % 2.5 in
21:06 6.5 °F 5.1 °F 1007.0 in NNE 0.8 mph 5.0 mph 91 % 2.5 in
21:11 6.4 °F 5.2 °F 1008.0 in NE 0.8 mph 5.0 mph 92 % 2.5 in
21:21 6.6 °F 5.4 °F 1008.0 in ENE 3.2 mph 6.9 mph 92 % 2.8 in
21:26 6.7 °F 5.5 °F 1007.0 in ENE 4.8 mph 6.9 mph 92 % 3.0 in
21:36 6.4 °F 5.2 °F 1007.0 in East 9.2 mph 19.8 mph 92 % 3.0 in
21:41 5.6 °F 4.4 °F 1006.0 in ENE 12.4 mph 19.8 mph 92 % 3.0 in
21:46 5.1 °F 3.8 °F 1006.0 in ENE 12.9 mph 20.1 mph 91 % 3.3 in
21:56 4.3 °F 2.9 °F 1007.0 in NE 7.4 mph 15.4 mph 91 % 4.3 in
22:01 4.3 °F 2.9 °F 1007.0 in NE 8.0 mph 17.2 mph 91 % 4.8 in
22:11 3.1 °F 1.4 °F 1007.0 in ENE 8.8 mph 21.2 mph 89 % 6.1 in
22:21 2.9 °F 1.3 °F 1007.0 in ENE 7.1 mph 16.6 mph 89 % 6.9 in
22:31 2.7 °F 0.9 °F 1007.0 in ENE 10.8 mph 23.3 mph 88 % 7.1 in
22:36 2.7 °F 0.9 °F 1007.0 in ENE 13.0 mph 28.5 mph 88 % 7.4 in
22:46 2.6 °F 0.8 °F 1007.0 in ENE 10.9 mph 23.8 mph 88 % 7.1 in
22:51 2.6 °F 0.8 °F 1007.0 in ENE 11.6 mph 23.8 mph 88 % 7.1 in
23:01 2.5 °F 0.7 °F 1007.0 in ENE 13.7 mph 25.3 mph 88 % 6.3 in
23:12 2.3 °F 0.5 °F 1007.0 in ENE 10.0 mph 21.2 mph 88 % 5.6 in
23:17 2.2 °F 0.4 °F 1007.0 in ENE 10.9 mph 21.2 mph 88 % 5.1 in
23:22 2.2 °F 0.4 °F 1007.0 in ENE 11.7 mph 21.2 mph 88 % 4.8 in
23:27 2.2 °F 0.4 °F 1006.0 in ENE 10.9 mph 22.7 mph 88 % 4.8 in
23:32 2.1 °F 0.3 °F 1006.0 in ENE 9.5 mph 22.7 mph 88 % 4.8 in
23:37 2.1 °F 0.3 °F 1006.0 in ENE 9.7 mph 20.6 mph 88 % 4.6 in
23:47 2.0 °F 0.2 °F 1007.0 in ENE 7.7 mph 20.9 mph 88 % 4.8 in
23:52 2.1 °F 0.3 °F 1007.0 in East 8.7 mph 20.9 mph 88 % 4.1 in
23:57 2.0 °F 0.2 °F 1008.0 in East 6.4 mph 11.6 mph 88 % 4.1 in
Vremenska postaja Senovo
Podatki zbrani iz Weather Underground - 2.75 mb

Script developed by  Jim McMurry - jmcmurry@mwt.net Adapted for the template by  Wim van der Kuil - Leuven-Template.eu

Vremenski podatki so objavljeni na:

European Weather Network

WeatherCloud

Weather Underground

AWEKAS

HAMweather, WeatherForYou, PWS Weather

MapView

Geostik

Slovenia weather network

Oprema, ki se uporablja:

Vremenski program
Cumulus

Vremenski server
Asus

Cumulus

Asus